Time;durP1;ratioP1;P1;durP2;ratioP2;P2;SDS_P1;SDS_P2;PMS_P1;PMS_P2;Temp;Humidity;BMP_temperature;BMP_pressure;BME280_temperature;BME280_humidity;BME280_pressure;Samples;Min_cycle;Max_cycle;Signal;HPM_P1;HPM_P2
2023/07/07 00:01:07;;;;;;;;;5.00;3.67;;;;;23.54;35.38;101084.25;5050412;28;45526;-71
2023/07/07 00:03:33;;;;;;;;;10.00;7.00;;;;;23.53;35.69;101082.44;5053270;28;47228;-71
2023/07/07 00:05:59;;;;;;;;;9.33;5.33;;;;;23.52;35.36;101090.66;5074655;27;45542;-70
2023/07/07 00:08:24;;;;;;;;;5.67;4.67;;;;;23.48;35.44;101087.13;5068943;28;45440;-71
2023/07/07 00:10:52;;;;;;;;;8.00;6.67;;;;;23.43;35.55;101080.88;5050862;28;45317;-70
2023/07/07 00:13:20;;;;;;;;;7.00;5.00;;;;;23.40;35.65;101077.31;5069519;28;46964;-71
2023/07/07 00:15:45;;;;;;;;;4.67;4.00;;;;;23.42;35.76;101087.25;5064094;28;45520;-71
2023/07/07 00:18:26;;;;;;;;;4.67;4.67;;;;;23.42;35.89;101092.69;5076058;27;45615;-78
2023/07/07 00:21:01;;;;;;;;;6.00;4.00;;;;;23.41;35.93;101077.25;5056355;28;45550;-71
2023/07/07 00:23:29;;;;;;;;;4.33;4.33;;;;;23.30;35.63;101071.16;5073191;28;46328;-70
2023/07/07 00:26:01;;;;;;;;;4.00;4.00;;;;;23.36;36.01;101085.56;5075853;28;45529;-70
2023/07/07 00:28:27;;;;;;;;;5.00;5.00;;;;;23.36;35.80;101095.53;5074477;27;45453;-70
2023/07/07 00:30:52;;;;;;;;;9.00;8.00;;;;;23.29;36.02;101086.59;5075077;27;45504;-70
2023/07/07 00:33:18;;;;;;;;;7.67;5.33;;;;;23.32;36.26;101091.09;5073961;27;48109;-69
2023/07/07 00:35:48;;;;;;;;;3.00;3.00;;;;;23.26;36.05;101083.94;5077008;28;45369;-71
2023/07/07 00:38:15;;;;;;;;;5.67;4.33;;;;;23.30;36.27;101096.59;5064270;28;45392;-72
2023/07/07 00:40:40;;;;;;;;;4.00;4.00;;;;;23.22;36.16;101079.50;5076766;28;45415;-71
2023/07/07 00:43:14;;;;;;;;;5.00;5.00;;;;;23.14;36.18;101067.84;5069148;27;45385;-72
2023/07/07 00:45:39;;;;;;;;;4.33;4.00;;;;;23.12;36.30;101067.00;5075969;27;45554;-71
2023/07/07 00:48:09;;;;;;;;;8.00;5.00;;;;;23.25;36.47;101089.44;5056648;28;45512;-70
2023/07/07 00:50:39;;;;;;;;;4.33;4.00;;;;;23.24;36.59;101084.91;5072141;27;45341;-71
2023/07/07 00:53:05;;;;;;;;;6.33;6.00;;;;;23.20;36.12;101081.34;5076224;28;46158;-70
2023/07/07 00:55:44;;;;;;;;;5.00;5.00;;;;;23.15;36.44;101073.25;5076155;27;45325;-71
2023/07/07 00:58:16;;;;;;;;;4.00;4.00;;;;;23.05;36.19;101059.81;5077043;28;45645;-71
2023/07/07 01:00:47;;;;;;;;;7.67;6.67;;;;;23.10;36.41;101066.09;5076530;28;45546;-71
2023/07/07 01:03:22;;;;;;;;;9.67;6.67;;;;;22.95;36.71;101035.50;5058562;28;48652;-72
2023/07/07 01:05:53;;;;;;;;;4.33;4.33;;;;;23.14;36.24;101078.75;5057926;28;45584;-71
2023/07/07 01:08:18;;;;;;;;;5.00;5.00;;;;;22.98;36.09;101046.34;5070664;27;45427;-71
2023/07/07 01:10:44;;;;;;;;;7.33;5.00;;;;;22.92;36.42;101038.28;5032139;28;45472;-70
2023/07/07 01:13:10;;;;;;;;;9.67;5.67;;;;;23.08;36.55;101067.97;5071526;27;45483;-72
2023/07/07 01:15:48;;;;;;;;;9.00;4.67;;;;;22.95;36.52;101042.75;5076233;28;45638;-72
2023/07/07 01:18:36;;;;;;;;;7.33;4.00;;;;;22.99;36.62;101055.41;5076035;28;45356;-72
2023/07/07 01:21:09;;;;;;;;;6.00;4.33;;;;;23.03;36.64;101061.69;5055762;28;45486;-71
2023/07/07 01:23:57;;;;;;;;;6.00;6.00;;;;;23.02;36.64;101066.25;5063757;28;46323;-71
2023/07/07 01:27:00;;;;;;;;;9.67;5.67;;;;;22.99;36.58;101067.19;5057504;28;45517;-70
2023/07/07 01:29:40;;;;;;;;;5.33;5.33;;;;;22.98;36.64;101057.22;5075562;27;45417;-72
2023/07/07 01:32:21;;;;;;;;;4.33;4.33;;;;;22.97;36.59;101063.59;5076288;27;45404;-73
2023/07/07 01:34:47;;;;;;;;;7.00;5.33;;;;;22.93;36.64;101050.97;5070659;28;45666;-71
2023/07/07 01:37:13;;;;;;;;;6.67;5.00;;;;;22.85;36.52;101042.06;5066480;27;45528;-70
2023/07/07 01:39:41;;;;;;;;;8.00;6.00;;;;;22.90;36.58;101047.41;5057812;28;45409;-72
2023/07/07 01:42:18;;;;;;;;;6.33;4.67;;;;;22.94;36.73;101065.50;5076227;27;45588;-73
2023/07/07 01:45:00;;;;;;;;;6.33;5.00;;;;;22.93;36.68;101050.06;5062837;28;46167;-71
2023/07/07 01:47:35;;;;;;;;;5.33;5.00;;;;;22.78;36.53;101032.19;5075374;27;45389;-72
2023/07/07 01:50:20;;;;;;;;;5.33;5.33;;;;;22.84;36.52;101042.97;5075443;28;45447;-71
2023/07/07 01:52:52;;;;;;;;;7.00;5.67;;;;;22.92;36.71;101057.34;5063329;28;45459;-69
2023/07/07 01:55:34;;;;;;;;;5.00;5.00;;;;;22.90;36.60;101053.75;5070926;28;47064;-70
2023/07/07 01:58:03;;;;;;;;;6.00;6.00;;;;;22.91;36.60;101058.25;5076020;27;45469;-71
2023/07/07 02:00:30;;;;;;;;;5.33;4.67;;;;;22.89;36.55;101051.97;5075331;27;45522;-71
2023/07/07 02:02:58;;;;;;;;;6.33;5.00;;;;;22.88;36.67;101055.59;5057467;28;45645;-71
2023/07/07 02:05:24;;;;;;;;;6.33;6.33;;;;;22.78;36.56;101045.81;5075148;28;45776;-71
2023/07/07 02:07:50;;;;;;;;;5.67;4.33;;;;;22.85;36.43;101050.25;5057184;28;45559;-70
2023/07/07 02:10:15;;;;;;;;;7.33;4.33;;;;;22.82;36.52;101051.19;5062648;27;45436;-71
2023/07/07 02:12:41;;;;;;;;;6.00;5.00;;;;;22.82;36.69;101053.91;5075620;27;45398;-71
2023/07/07 02:15:07;;;;;;;;;4.00;4.00;;;;;22.81;36.72;101053.94;5074511;27;45631;-71
2023/07/07 02:17:32;;;;;;;;;6.00;6.00;;;;;22.71;36.58;101036.88;5075256;28;45833;-72
2023/07/07 02:19:58;;;;;;;;;4.33;4.33;;;;;22.74;36.67;101044.09;5075573;27;46194;-72
2023/07/07 02:22:24;;;;;;;;;6.67;5.33;;;;;22.69;36.54;101041.44;5075268;28;45564;-74
2023/07/07 02:24:49;;;;;;;;;5.00;5.00;;;;;22.76;36.69;101053.13;5074031;27;45925;-73
2023/07/07 02:27:15;;;;;;;;;2.67;2.00;;;;;22.70;36.87;101040.50;5077826;28;45813;-72
2023/07/07 02:29:40;;;;;;;;;5.67;4.67;;;;;22.75;36.78;101054.03;5057703;28;45720;-74
2023/07/07 02:32:07;;;;;;;;;6.00;5.00;;;;;22.62;36.78;101029.78;5074528;27;45490;-71
2023/07/07 02:34:32;;;;;;;;;5.00;3.33;;;;;22.68;36.79;101044.19;5074747;27;47233;-75
2023/07/07 02:36:58;;;;;;;;;4.33;4.33;;;;;22.66;36.67;101044.22;5075588;28;45323;-73
2023/07/07 02:39:24;;;;;;;;;5.00;4.33;;;;;22.65;36.86;101039.69;5073495;27;45314;-70
2023/07/07 02:41:49;;;;;;;;;5.00;3.33;;;;;22.19;36.87;100961.56;5064952;27;45444;-72
2023/07/07 02:44:16;;;;;;;;;5.00;5.00;;;;;22.53;37.07;101026.34;5068729;28;45505;-71
2023/07/07 02:46:41;;;;;;;;;6.67;4.00;;;;;22.50;37.11;101020.94;5071515;28;45219;-71
2023/07/07 02:49:07;;;;;;;;;5.00;4.33;;;;;22.59;36.91;101042.56;5065578;28;45342;-73
2023/07/07 02:51:32;;;;;;;;;7.00;5.33;;;;;22.59;37.27;101048.00;5064297;28;45500;-71
2023/07/07 02:53:57;;;;;;;;;8.00;6.00;;;;;22.48;37.80;101025.53;5068151;27;45458;-71
2023/07/07 02:56:23;;;;;;;;;5.67;5.67;;;;;22.57;37.20;101033.50;5074632;27;46103;-71
2023/07/07 02:58:48;;;;;;;;;6.00;5.00;;;;;22.55;37.15;101041.69;5068553;28;45410;-71
2023/07/07 03:01:17;;;;;;;;;6.00;5.00;;;;;22.53;37.28;101046.28;5075237;27;45382;-71
2023/07/07 03:03:48;;;;;;;;;3.33;2.67;;;;;22.50;37.35;101043.59;5074056;28;45438;-70
2023/07/07 03:06:16;;;;;;;;;5.67;5.67;;;;;22.51;37.41;101041.81;5074286;28;45387;-71
2023/07/07 03:08:42;;;;;;;;;5.67;5.67;;;;;22.44;37.33;101032.84;5055579;28;45570;-70
2023/07/07 03:11:11;;;;;;;;;3.33;3.33;;;;;22.48;37.31;101039.13;5074842;27;45604;-72
2023/07/07 03:13:37;;;;;;;;;5.00;3.00;;;;;22.49;37.50;101038.19;5071204;27;46194;-72
2023/07/07 03:16:23;;;;;;;;;4.00;4.00;;;;;22.46;37.39;101041.88;5069477;28;45357;-71
2023/07/07 03:18:54;;;;;;;;;5.00;4.33;;;;;22.45;37.33;101042.78;5073893;28;45354;-72
2023/07/07 03:21:21;;;;;;;;;3.00;3.00;;;;;22.42;37.63;101040.13;5074404;27;45254;-71
2023/07/07 03:23:46;;;;;;;;;6.00;5.33;;;;;22.37;37.70;101032.06;5073684;27;46230;-70
2023/07/07 03:26:14;;;;;;;;;4.00;3.00;;;;;22.34;37.77;101025.75;5055489;28;45412;-71
2023/07/07 03:28:40;;;;;;;;;4.67;4.67;;;;;22.35;37.52;101030.28;5073903;27;45532;-69
2023/07/07 03:31:17;;;;;;;;;23.00;21.25;;;;;22.23;37.80;101004.16;5074317;27;45524;-71
2023/07/07 03:33:44;;;;;;;;;5.00;5.00;;;;;22.37;37.66;101036.59;5048966;28;48240;-72
2023/07/07 03:36:12;;;;;;;;;6.00;6.00;;;;;22.30;37.67;101018.59;5073762;28;45286;-71
2023/07/07 03:38:39;;;;;;;;;7.67;3.67;;;;;22.29;38.00;101022.22;5069712;28;45769;-73
2023/07/07 03:41:07;;;;;;;;;4.33;4.00;;;;;22.32;37.82;101031.22;5066950;28;45324;-71
2023/07/07 03:43:37;;;;;;;;;4.33;4.33;;;;;22.27;37.87;101024.94;5072723;27;45385;-70
2023/07/07 03:46:03;;;;;;;;;5.33;4.00;;;;;22.30;37.93;101037.63;5073322;27;45554;-72
2023/07/07 03:48:28;;;;;;;;;5.67;5.67;;;;;22.29;38.11;101042.19;5073498;27;45491;-71
2023/07/07 03:51:01;;;;;;;;;3.33;3.33;;;;;22.23;38.30;101034.97;5069483;28;45358;-71
2023/07/07 03:53:28;;;;;;;;;5.00;4.33;;;;;22.01;38.15;100998.16;5055442;28;46651;-74
2023/07/07 03:55:55;;;;;;;;;6.00;5.00;;;;;22.27;38.09;101041.25;5073447;28;45554;-69
2023/07/07 03:58:22;;;;;;;;;6.00;4.67;;;;;22.21;38.03;101035.94;5054732;28;45454;-69
2023/07/07 04:00:48;;;;;;;;;7.00;6.00;;;;;22.22;38.11;101037.72;5075508;28;45305;-72
2023/07/07 04:03:14;;;;;;;;;5.67;4.33;;;;;22.24;38.14;101042.22;5077222;28;46814;-71
2023/07/07 04:05:44;;;;;;;;;6.00;4.33;;;;;22.13;37.93;101027.91;5054572;28;45443;-72
2023/07/07 04:08:09;;;;;;;;;5.00;3.00;;;;;22.23;38.21;101042.25;5054486;28;45388;-71
2023/07/07 04:10:35;;;;;;;;;4.00;4.00;;;;;22.18;38.34;101041.44;5077863;28;45461;-71
2023/07/07 04:13:01;;;;;;;;;6.00;5.67;;;;;22.17;38.32;101040.53;5077188;27;46046;-70
2023/07/07 04:15:26;;;;;;;;;6.00;4.00;;;;;22.21;38.46;101053.16;5077002;27;45383;-72
2023/07/07 04:17:52;;;;;;;;;4.67;4.67;;;;;22.11;38.48;101034.28;5077536;27;45559;-70
2023/07/07 04:20:17;;;;;;;;;4.67;4.00;;;;;22.16;38.38;101040.53;5057986;28;45413;-70
2023/07/07 04:22:42;;;;;;;;;4.67;3.33;;;;;22.19;38.38;101046.84;5071437;27;54097;-70
2023/07/07 04:25:16;;;;;;;;;6.00;5.00;;;;;22.13;38.40;101041.50;5058344;28;45913;-73
2023/07/07 04:27:42;;;;;;;;;8.67;7.00;;;;;22.18;38.40;101044.16;5076902;28;45386;-71
2023/07/07 04:30:09;;;;;;;;;5.00;5.00;;;;;22.06;38.56;101028.94;5076893;28;45688;-72
2023/07/07 04:32:35;;;;;;;;;9.00;5.67;;;;;22.12;38.52;101046.97;5076877;28;45507;-72
2023/07/07 04:35:01;;;;;;;;;5.33;5.33;;;;;22.14;38.54;101043.31;5076023;27;45308;-71
2023/07/07 04:37:27;;;;;;;;;5.67;5.67;;;;;22.11;38.47;101042.44;5072392;27;45556;-71
2023/07/07 04:39:52;;;;;;;;;4.67;4.67;;;;;22.19;38.73;101060.47;5077207;28;45444;-72
2023/07/07 04:42:18;;;;;;;;;4.00;4.00;;;;;22.20;38.79;101056.81;5073865;28;46014;-70
2023/07/07 04:44:44;;;;;;;;;4.67;4.00;;;;;22.14;38.58;101045.13;5076673;27;45414;-71
2023/07/07 04:47:09;;;;;;;;;4.67;4.67;;;;;22.21;39.04;101053.16;5066222;28;45573;-72
2023/07/07 04:49:34;;;;;;;;;6.33;4.33;;;;;22.05;38.52;101030.75;5076498;27;45594;-71
2023/07/07 04:52:00;;;;;;;;;5.00;4.67;;;;;22.18;38.69;101055.94;5076195;27;50856;-70
2023/07/07 04:54:25;;;;;;;;;7.00;4.00;;;;;22.09;38.64;101048.84;5076477;27;45416;-73
2023/07/07 04:56:50;;;;;;;;;4.00;4.00;;;;;21.98;38.72;101026.34;5058001;28;51955;-71
2023/07/07 04:59:16;;;;;;;;;5.67;5.00;;;;;22.16;38.91;101055.06;5066208;27;45709;-70
2023/07/07 05:01:42;;;;;;;;;4.67;4.67;;;;;22.17;38.86;101045.97;5058619;28;47446;-73
2023/07/07 05:04:08;;;;;;;;;5.00;4.00;;;;;22.12;38.85;101036.97;5076269;27;45362;-70
2023/07/07 05:06:39;;;;;;;;;4.33;4.33;;;;;22.04;38.96;101031.69;5076281;28;45412;-71
2023/07/07 05:09:09;;;;;;;;;7.00;5.67;;;;;22.13;38.75;101041.50;5076704;28;45386;-71
2023/07/07 05:11:36;;;;;;;;;13.00;10.00;;;;;22.21;38.99;101053.16;5074932;27;46086;-70
2023/07/07 05:14:01;;;;;;;;;5.67;3.33;;;;;22.23;39.01;101058.59;5075470;27;45448;-72
2023/07/07 05:16:32;;;;;;;;;8.00;5.00;;;;;22.15;38.86;101041.50;5074083;28;45768;-72
2023/07/07 05:18:58;;;;;;;;;6.33;6.33;;;;;22.24;39.12;101069.44;5057404;28;45306;-71
2023/07/07 05:21:25;;;;;;;;;6.00;5.00;;;;;22.15;39.09;101046.94;5075186;28;45450;-71
2023/07/07 05:23:52;;;;;;;;;7.00;7.00;;;;;22.20;39.28;101059.53;5075783;27;45382;-73
2023/07/07 05:26:18;;;;;;;;;5.67;4.33;;;;;22.08;39.28;101052.47;5072703;27;45588;-71
2023/07/07 05:28:43;;;;;;;;;7.33;6.00;;;;;22.11;39.51;101066.94;5066724;27;45519;-71
2023/07/07 05:31:09;;;;;;;;;6.00;6.00;;;;;22.01;39.46;101049.84;5075749;27;46305;-70
2023/07/07 05:33:37;;;;;;;;;7.67;6.00;;;;;22.09;39.52;101069.69;5057203;28;45568;-72
2023/07/07 05:36:05;;;;;;;;;10.00;7.00;;;;;22.05;39.58;101055.22;5076030;28;45451;-71
2023/07/07 05:38:31;;;;;;;;;7.00;5.33;;;;;22.01;39.90;101049.84;5076829;27;45297;-72
2023/07/07 05:40:57;;;;;;;;;5.67;5.33;;;;;21.97;39.65;101039.97;5076431;27;45442;-72
2023/07/07 05:43:24;;;;;;;;;6.00;6.00;;;;;22.14;39.70;101080.50;5076558;27;45467;-73
2023/07/07 05:46:04;;;;;;;;;7.00;7.00;;;;;22.13;39.99;101071.44;5074966;28;45331;-72
2023/07/07 05:48:29;;;;;;;;;9.67;9.67;;;;;21.82;39.78;101008.47;5076333;28;45430;-72
2023/07/07 05:51:01;;;;;;;;;7.33;5.67;;;;;22.18;39.76;101064.09;5051957;28;45510;-72
2023/07/07 05:53:27;;;;;;;;;6.00;6.00;;;;;22.15;39.79;101050.53;5070910;27;45382;-74
2023/07/07 05:56:03;;;;;;;;;5.67;4.33;;;;;22.24;39.75;101073.97;5070700;28;45538;-74
2023/07/07 05:58:29;;;;;;;;;7.67;6.67;;;;;22.28;39.62;101070.28;5071382;28;45435;-72
2023/07/07 06:00:54;;;;;;;;;7.00;5.00;;;;;22.32;39.44;101072.06;5075792;27;46401;-72
2023/07/07 06:03:19;;;;;;;;;8.67;6.67;;;;;22.35;39.51;101074.72;5067845;27;45388;-70
2023/07/07 06:05:45;;;;;;;;;8.00;7.00;;;;;22.39;39.47;101072.84;5047464;28;45571;-72
2023/07/07 06:08:10;;;;;;;;;7.67;6.33;;;;;22.33;39.41;101052.09;5064526;28;45488;-76
2023/07/07 06:10:36;;;;;;;;;6.67;5.00;;;;;22.46;39.47;101063.66;5038486;28;47254;-73
2023/07/07 06:13:02;;;;;;;;;5.00;5.00;;;;;22.34;39.36;101044.81;5052431;28;45476;-74
2023/07/07 06:15:27;;;;;;;;;8.67;6.33;;;;;22.49;39.48;101063.63;5066988;28;45366;-71
2023/07/07 06:17:53;;;;;;;;;7.67;6.33;;;;;22.44;39.54;101058.25;5071479;28;45448;-73
2023/07/07 06:20:18;;;;;;;;;9.00;6.67;;;;;22.32;39.53;101033.94;5075388;28;46253;-74
2023/07/07 06:22:46;;;;;;;;;7.50;7.50;;;;;22.53;39.47;101073.50;5073181;27;45362;-73
2023/07/07 06:25:11;;;;;;;;;9.67;6.00;;;;;22.38;39.52;101054.72;5058151;28;45490;-72
2023/07/07 06:27:37;;;;;;;;;7.00;5.67;;;;;22.52;39.41;101069.00;5068801;28;45490;-73
2023/07/07 06:30:03;;;;;;;;;11.33;8.00;;;;;22.48;39.67;101063.63;5075077;28;45973;-75
2023/07/07 06:32:28;;;;;;;;;8.67;6.33;;;;;22.52;39.65;101069.00;5070795;28;45228;-73
2023/07/07 06:34:54;;;;;;;;;10.67;6.00;;;;;22.57;39.64;101074.34;5076206;27;45400;-72
2023/07/07 06:37:20;;;;;;;;;7.33;7.33;;;;;22.42;39.57;101045.56;5058417;27;45346;-74
2023/07/07 06:39:45;;;;;;;;;43.00;35.50;;;;;22.68;39.51;101074.16;5054612;28;47956;-71
2023/07/07 06:42:13;;;;;;;;;14.33;9.00;;;;;22.74;39.41;101069.50;5074842;27;45496;-75
2023/07/07 06:44:40;;;;;;;;;6.67;6.67;;;;;22.67;39.15;101056.94;5075552;27;45427;-73
2023/07/07 06:47:06;;;;;;;;;10.00;8.33;;;;;22.85;39.08;101077.47;5075443;27;45318;-74
2023/07/07 06:49:32;;;;;;;;;10.00;8.00;;;;;22.92;39.22;101080.97;5075296;27;45966;-78
2023/07/07 06:51:57;;;;;;;;;8.33;7.33;;;;;22.93;39.18;101060.97;5057410;28;45764;-73
2023/07/07 06:54:23;;;;;;;;;11.67;8.67;;;;;22.87;39.18;101048.38;5055612;28;45489;-75
2023/07/07 06:56:49;;;;;;;;;6.33;6.33;;;;;23.04;38.97;101063.50;5073969;27;45480;-73
2023/07/07 06:59:14;;;;;;;;;11.00;9.67;;;;;23.21;38.84;101083.13;5048155;28;47111;-72
2023/07/07 07:01:40;;;;;;;;;12.00;10.00;;;;;23.30;38.84;101079.34;5076057;28;45392;-76
2023/07/07 07:04:05;;;;;;;;;16.00;13.33;;;;;23.36;39.09;101076.47;5048521;28;45491;-75
2023/07/07 07:06:31;;;;;;;;;8.00;6.00;;;;;23.43;38.79;101077.22;5070169;27;45437;-74
2023/07/07 07:08:56;;;;;;;;;7.00;7.00;;;;;23.23;38.56;101023.13;5077184;28;45430;-74
2023/07/07 07:11:22;;;;;;;;;7.00;7.00;;;;;23.56;38.30;101076.06;5076707;27;45304;-75
2023/07/07 07:13:47;;;;;;;;;7.33;6.33;;;;;23.64;38.33;101082.22;5056083;28;45317;-74
2023/07/07 07:16:13;;;;;;;;;33.50;28.75;;;;;23.59;38.41;101058.69;5046744;28;45540;-73
2023/07/07 07:18:38;;;;;;;;;7.00;7.00;;;;;23.72;38.35;101062.94;5077957;27;45739;-73
2023/07/07 07:21:04;;;;;;;;;8.67;8.67;;;;;23.86;38.41;101070.84;5076684;27;45398;-74
2023/07/07 07:23:29;;;;;;;;;13.33;11.00;;;;;23.90;38.16;101061.66;5074616;27;45359;-70
2023/07/07 07:25:54;;;;;;;;;15.67;12.00;;;;;24.10;38.00;101088.44;5038645;28;45394;-73
2023/07/07 07:28:20;;;;;;;;;8.00;8.00;;;;;24.12;37.74;101082.94;5067749;28;53679;-71
2023/07/07 07:30:45;;;;;;;;;12.00;6.33;;;;;24.12;37.83;101067.47;5069072;28;45314;-74
2023/07/07 07:33:19;;;;;;;;;5.33;5.33;;;;;24.28;37.87;101078.91;5051868;28;45625;-71
2023/07/07 07:35:45;;;;;;;;;6.00;5.00;;;;;24.28;37.88;101078.91;5069701;28;45377;-73
2023/07/07 07:38:11;;;;;;;;;9.33;7.33;;;;;24.28;37.89;101079.78;5074501;28;46103;-72
2023/07/07 07:40:36;;;;;;;;;8.67;8.67;;;;;24.34;37.64;101078.75;5074302;27;45712;-74
2023/07/07 07:43:01;;;;;;;;;7.00;7.00;;;;;24.40;37.82;101085.88;5071639;27;45585;-73
2023/07/07 07:45:27;;;;;;;;;6.00;6.00;;;;;24.34;37.40;101067.84;5072403;28;45638;-72
2023/07/07 07:47:52;;;;;;;;;7.00;7.00;;;;;24.53;37.81;101083.75;5075609;27;46056;-73
2023/07/07 07:50:20;;;;;;;;;12.00;7.00;;;;;24.61;37.36;101084.47;5066985;28;45684;-73
2023/07/07 07:52:46;;;;;;;;;8.67;6.33;;;;;24.69;37.51;101092.47;5071996;28;45458;-74
2023/07/07 07:55:14;;;;;;;;;8.00;8.00;;;;;24.75;37.31;101098.66;5075510;28;45412;-74
2023/07/07 07:57:39;;;;;;;;;8.67;7.00;;;;;24.82;37.53;101088.47;5075526;28;45485;-73
2023/07/07 08:00:06;;;;;;;;;8.67;7.00;;;;;24.96;36.88;101090.81;5070998;27;45460;-72
2023/07/07 08:02:31;;;;;;;;;10.00;7.00;;;;;25.00;37.25;101090.69;5073055;28;45473;-72
2023/07/07 08:04:56;;;;;;;;;11.00;7.00;;;;;25.02;37.30;101096.09;5071732;27;45660;-72
2023/07/07 08:07:22;;;;;;;;;8.67;8.67;;;;;24.99;37.24;101096.19;5066446;28;46280;-71
2023/07/07 08:09:47;;;;;;;;;9.67;8.33;;;;;24.95;36.85;101083.56;5074420;28;45409;-72
2023/07/07 08:12:13;;;;;;;;;17.00;13.33;;;;;25.11;37.61;101097.66;5056276;28;45694;-70
2023/07/07 08:14:39;;;;;;;;;9.00;6.00;;;;;25.12;36.79;101094.91;5051002;28;45448;-78
2023/07/07 08:17:08;;;;;;;;;5.67;5.67;;;;;25.13;36.61;101087.63;5050095;27;47995;-73
2023/07/07 08:19:36;;;;;;;;;8.67;5.00;;;;;25.24;36.44;101100.97;5070699;28;45559;-72
2023/07/07 08:22:05;;;;;;;;;9.67;9.67;;;;;25.19;36.25;101081.94;5056386;28;45528;-71
2023/07/07 08:24:37;;;;;;;;;5.33;5.33;;;;;25.13;36.34;101065.75;5050724;28;45547;-75
2023/07/07 08:27:03;;;;;;;;;7.67;5.33;;;;;25.30;36.66;101087.16;5056536;28;46849;-72
2023/07/07 08:29:29;;;;;;;;;8.33;7.00;;;;;25.43;36.83;101098.63;5074036;27;45457;-71
2023/07/07 08:31:54;;;;;;;;;6.67;6.33;;;;;25.45;36.37;101104.94;5066984;28;45350;-70
2023/07/07 08:34:20;;;;;;;;;6.00;6.00;;;;;25.43;36.79;101104.09;5068336;27;45399;-70
2023/07/07 08:36:46;;;;;;;;;9.00;7.33;;;;;25.35;36.81;101087.91;5064142;28;45913;-71
2023/07/07 08:39:15;;;;;;;;;6.67;5.00;;;;;25.50;36.56;101092.00;5073760;27;45310;-72
2023/07/07 08:41:49;;;;;;;;;13.33;9.00;;;;;25.62;36.71;101093.47;5073576;28;45455;-71
2023/07/07 08:44:18;;;;;;;;;8.33;6.00;;;;;25.70;36.15;101095.03;5073878;27;45395;-72
2023/07/07 08:46:47;;;;;;;;;7.33;7.33;;;;;25.82;36.26;101079.16;5075212;28;46295;-72
2023/07/07 08:49:20;;;;;;;;;14.67;13.67;;;;;25.93;36.32;101087.94;5076762;27;45487;-72
2023/07/07 08:52:05;;;;;;;;;9.67;7.33;;;;;26.04;35.76;101084.91;5066187;27;45557;-72
2023/07/07 08:54:50;;;;;;;;;7.67;6.33;;;;;26.10;35.47;101082.84;5066389;28;45678;-75
2023/07/07 08:57:18;;;;;;;;;11.00;6.00;;;;;26.07;35.33;101077.47;5076515;28;46922;-71
2023/07/07 09:00:06;;;;;;;;;7.00;6.00;;;;;26.17;35.43;101083.53;5062269;27;45482;-71
2023/07/07 09:02:47;;;;;;;;;6.67;6.67;;;;;26.21;35.57;101078.84;5042473;28;45477;-72
2023/07/07 09:05:44;;;;;;;;;10.33;8.67;;;;;26.17;35.57;101068.94;5075056;27;45497;-71
2023/07/07 09:08:23;;;;;;;;;10.00;7.67;;;;;26.30;35.53;101086.78;5073549;27;45487;-73
2023/07/07 09:11:04;;;;;;;;;15.00;10.00;;;;;26.36;35.61;101085.66;5055236;28;45468;-75
2023/07/07 09:13:32;;;;;;;;;10.00;8.00;;;;;26.30;35.38;101065.75;5076209;28;45499;-71
2023/07/07 09:16:18;;;;;;;;;8.00;8.00;;;;;26.54;35.54;101092.34;5077732;28;45451;-72
2023/07/07 09:19:05;;;;;;;;;9.33;9.33;;;;;26.66;35.22;101089.19;5064474;28;46131;-71
2023/07/07 09:21:40;;;;;;;;;6.67;5.00;;;;;26.67;35.45;101069.97;5070674;28;45313;-70
2023/07/07 09:24:25;;;;;;;;;14.33;12.67;;;;;26.90;35.23;101079.22;5074451;27;45332;-70
2023/07/07 09:26:56;;;;;;;;;19.33;17.33;;;;;27.06;35.34;101081.38;5070368;28;45355;-72
2023/07/07 09:29:26;;;;;;;;;13.33;11.00;;;;;27.23;34.92;101081.66;5070914;27;46489;-73
2023/07/07 09:31:52;;;;;;;;;15.00;14.67;;;;;27.28;34.63;101068.66;5076504;27;45378;-74
2023/07/07 09:34:19;;;;;;;;;12.00;12.00;;;;;27.43;34.79;101069.94;5076330;27;45535;-72
2023/07/07 09:37:00;;;;;;;;;8.00;8.00;;;;;27.45;33.93;101075.38;5042485;28;45687;-72
2023/07/07 09:39:53;;;;;;;;;8.67;7.00;;;;;27.38;34.13;101071.97;5048385;28;48353;-73
2023/07/07 09:42:32;;;;;;;;;11.00;8.00;;;;;27.29;34.37;101059.50;5062634;28;45345;-73
2023/07/07 09:45:16;;;;;;;;;10.00;8.67;;;;;27.26;34.20;101066.94;5073828;28;45393;-74
2023/07/07 09:48:19;;;;;;;;;7.33;7.33;;;;;27.20;34.41;101065.31;5064498;27;45526;-72
2023/07/07 09:50:53;;;;;;;;;15.33;11.00;;;;;27.13;34.99;101056.41;5072908;28;45393;-71
2023/07/07 09:53:24;;;;;;;;;10.00;10.00;;;;;27.14;34.94;101054.56;5072472;27;45488;-76
2023/07/07 09:55:50;;;;;;;;;11.67;9.00;;;;;27.12;34.68;101046.38;5069099;28;45370;-71
2023/07/07 09:58:31;;;;;;;;;13.00;9.00;;;;;27.26;34.57;101058.72;5076252;28;45644;-74
2023/07/07 10:01:00;;;;;;;;;10.00;7.00;;;;;27.25;35.00;101056.91;5047769;28;47031;-73
2023/07/07 10:03:51;;;;;;;;;14.00;11.67;;;;;27.27;34.48;101047.66;5057551;27;45551;-73
2023/07/07 10:06:36;;;;;;;;;15.33;14.67;;;;;27.44;34.27;101068.09;5070137;28;45391;-71
2023/07/07 10:09:03;;;;;;;;;10.33;9.00;;;;;27.42;34.67;101068.16;5041282;28;45577;-78
2023/07/07 10:11:32;;;;;;;;;9.33;8.00;;;;;27.45;34.79;101068.03;5056843;28;45864;-77
2023/07/07 10:14:04;;;;;;;;;10.67;9.67;;;;;27.47;34.73;101063.41;5075857;27;45454;-71
2023/07/07 10:16:34;;;;;;;;;8.33;7.00;;;;;27.50;34.80;101067.84;5063586;28;45532;-74
2023/07/07 10:19:08;;;;;;;;;11.67;10.67;;;;;27.51;34.89;101054.06;5077474;27;45244;-75
2023/07/07 10:21:34;;;;;;;;;12.67;10.67;;;;;27.49;35.06;101042.28;5075540;28;46556;-73
2023/07/07 10:23:59;;;;;;;;;10.33;8.00;;;;;27.64;34.85;101056.34;5076097;28;45372;-73
2023/07/07 10:26:25;;;;;;;;;11.00;9.67;;;;;27.67;34.62;101048.88;5074666;27;45355;-74
2023/07/07 10:28:54;;;;;;;;;13.00;11.00;;;;;27.70;34.42;101047.84;5072859;27;45612;-78
2023/07/07 10:31:19;;;;;;;;;10.00;9.00;;;;;27.73;34.93;101043.13;5045197;28;46226;-73
2023/07/07 10:33:51;;;;;;;;;18.00;12.33;;;;;27.75;34.39;101029.31;5064476;28;45460;-74
2023/07/07 10:36:23;;;;;;;;;13.67;11.33;;;;;27.93;34.85;101052.44;5070311;27;45311;-73
2023/07/07 10:38:48;;;;;;;;;10.67;8.33;;;;;27.94;34.60;101026.75;5024944;28;45515;-72
2023/07/07 10:41:14;;;;;;;;;10.33;9.00;;;;;27.83;34.79;100996.06;5075290;27;45396;-72
2023/07/07 10:43:39;;;;;;;;;10.00;9.67;;;;;28.13;33.89;101036.03;5071115;28;45281;-71
2023/07/07 10:46:13;;;;;;;;;16.33;13.00;;;;;28.15;33.17;101033.22;5074715;27;45645;-74
2023/07/07 10:48:39;;;;;;;;;13.67;12.67;;;;;28.26;33.13;101040.97;5057021;28;45560;-73
2023/07/07 10:51:28;;;;;;;;;14.67;12.00;;;;;28.36;33.05;101034.13;5075125;28;45570;-72
2023/07/07 10:53:57;;;;;;;;;7.00;7.00;;;;;28.46;32.83;101045.59;5048655;28;45522;-73
2023/07/07 10:56:28;;;;;;;;;7.00;7.00;;;;;28.42;32.31;101024.72;5064472;28;45322;-74
2023/07/07 10:59:31;;;;;;;;;7.00;7.00;;;;;28.59;32.75;101040.50;5073296;27;45546;-72
2023/07/07 11:02:19;;;;;;;;;8.00;8.00;;;;;28.69;32.28;101033.63;5068241;28;45478;-73
2023/07/07 11:05:07;;;;;;;;;10.00;9.00;;;;;28.72;32.58;101033.50;5068604;28;45550;-72
2023/07/07 11:08:12;;;;;;;;;7.67;7.67;;;;;28.78;31.76;101027.72;5056475;28;45475;-73
2023/07/07 11:10:58;;;;;;;;;14.00;12.00;;;;;28.76;32.07;101026.00;5051284;28;45492;-74
2023/07/07 11:13:41;;;;;;;;;11.00;7.00;;;;;28.77;32.25;101025.03;5074914;28;46501;-75
2023/07/07 11:16:36;;;;;;;;;11.67;8.00;;;;;28.84;32.17;101023.78;5071360;28;45604;-75
2023/07/07 11:19:18;;;;;;;;;5.00;4.33;;;;;28.81;31.64;101005.59;5007904;28;45377;-77
2023/07/07 11:21:46;;;;;;;;;6.33;6.33;;;;;28.89;31.20;101018.09;5073091;27;45498;-72
2023/07/07 11:24:34;;;;;;;;;10.67;9.00;;;;;28.91;32.08;101010.69;5073797;28;46229;-74
2023/07/07 11:27:24;;;;;;;;;8.67;8.67;;;;;28.85;31.23;100981.59;5063618;28;45334;-75
2023/07/07 11:29:58;;;;;;;;;9.33;7.33;;;;;28.98;31.54;100990.16;5074139;27;45287;-73
2023/07/07 11:32:36;;;;;;;;;10.67;10.00;;;;;29.03;31.25;100990.84;5073113;28;45567;-73
2023/07/07 11:35:19;;;;;;;;;37.50;31.50;;;;;29.07;31.63;100995.22;5063772;27;45523;-73